Terminal Aerodrome Forecast
Issued by NWS Shreveport, LA

Home | Current Version | Previous Version | Text Only | Print | Product List | Glossary On
Versions: 1 2 3 4 5 6 7 8 9 10 11 12 13 14 15 16 17
857
FTUS44 KSHV 240520
TAFGGG
TAF
KGGG 240520Z 2406/2506 13006KT P6SM FEW045 OVC060
     FM240900 16008KT P6SM OVC015
     FM241500 17010KT P6SM BKN035
     FM241800 17010KT P6SM VCTS SCT050CB BKN250
     FM250000 17010KT P6SM SCT050 BKN100=

USA.gov is the U.S. government's official web portal to all federal, state and local government web resources and services.